AirNav   Everest Fuels
 
 834 users online  

9R5 Hunt Airport
Portland, Texas, USA

GOING TO PORTLAND?


FAA INFORMATION EFFECTIVE 20 MAY 2021

Location

FAA Identifier: 9R5
Lat/Long: 27-53-12.0017N 097-20-58.6898W
27-53.200028N 097-20.978163W
27.8866671,-97.3496361
(estimated)
Elevation: 40 ft. / 12.2 m (surveyed)
Variation: 07E (1985)
From city: 2 miles NW of PORTLAND, TX
Time zone: UTC -5 (UTC -6 during Standard Time)
Zip code: 78374

Airport Operations

Airport use: Open to the public
Activation date: 12/1944
Control tower: no
ARTCC: HOUSTON CENTER
FSS: SAN ANGELO FLIGHT SERVICE STATION
NOTAMs facility: SJT (NOTAM-D service available)
Attendance: UNATNDD
Wind indicator: yes
Segmented circle: no

Airport Communications

CTAF: 122.9
WX AWOS-3 at TFP (7 nm E): 118.775 (361-758-8961)
WX ASOS at CRP (11 nm SW): PHONE 361-289-0191
WX AWOS-3 at T69 (14 nm NW): 118.25 (361-364-1844)
WX AWOS-3 at RAS (15 nm E): 118.425 (361-749-0537)
WX AWOS-3 at RBO (19 nm W): 118.175 (361-767-1982)

Nearby radio navigation aids

VOR radial/distance  VOR name  Freq  Var
CRPr092/5.2CORPUS CHRISTI VORTAC115.5009E
ALIr070/(36.7)ALICE VOR114.5006E

 
NDB name  Hdg/Dist  Freq  Var  ID
MELLON RANCH192/24.837506EMNO -- -. ---

Airport Services

Bottled oxygen: NONE
Bulk oxygen: NONE

Runway Information

Runway 14L/32R

Dimensions: 2650 x 20 ft. / 808 x 6 m
Surface: asphalt, in poor condition
HAS SEVERE GRASS ENCROACHMENT, POT HOLES AND LOOSE GRAVEL ON RWY.
Weight bearing capacity: 
Single wheel: 9.0
Operational restrictions: LIMITED LINE OF SIGHT BTN THLDS; SOUTHERN 600 FT OF RY DROPS OFF APPROXLY 8 FT.
RUNWAY 14L  RUNWAY 32R
Latitude: 27-53.428500N27-53.050833N
Longitude: 097-21.044000W097-20.795833W
Elevation: 38.0 ft.22.0 ft.
Traffic pattern: rightleft
Obstructions: 57 ft. pline, 2982 ft. from runway, 48:1 slope to clear
+19 FT ROAD FM THLD ACROSS APCH.
6 ft. brush, 200 ft. from runway

Runway 14R/32L

Dimensions: 1400 x 60 ft. / 427 x 18 m
Surface: turf/gravel, in poor condition
HEAVY RUTTING ALONG ENTIRE RUNWAY LENGTH
Operational restrictions: RY CLSD INDEFLY.
RUNWAY 14R  RUNWAY 32L
Latitude: 27-53.218167N27-53.031833N
Longitude: 097-21.165500W097-21.011333W
Elevation: 32.0 ft.35.0 ft.
Traffic pattern: rightleft

Airport Ownership and Management from official FAA records

Ownership: Privately-owned
Owner: JANIE MITCHELL
BOX 60
PORTLAND, TX 78374
Phone 361-643-3950
Manager: JANIE MITCHELL
BOX 60
PORTLAND, TX 78374
Phone 361-643-3950

Airport Operational Statistics

Aircraft based on the field: 8
Single engine airplanes: 5
Ultralights: 3
    
Aircraft operations: avg 40/week *
67% local general aviation
33% transient general aviation
* for 12-month period ending 15 March 2017

Additional Remarks

NOISE ABATEMENT PROCEDURES IN EFFECT - CALL ARPT MGR AT 361-643-3950.
OWNER RESIDES ON ARPT.
RY 32R GROUND DROPS OFF APPROX 10 FT AT THLD.
FOR CD CTC CORPUS CHRISTI APCH AT 361-299-4230.

Instrument Procedures

There are no published instrument procedures at 9R5.

Some nearby airports with instrument procedures:

KTFP - McCampbell-Porter Airport (7 nm E)
KCRP - Corpus Christi International Airport (11 nm SW)
KNGP - Corpus Christi Naval Air Station/Truax Field (12 nm S)
T69 - Alfred C 'Bubba' Thomas Airport (14 nm NW)
KRAS - Mustang Beach Airport (15 nm E)
KRBO - Nueces County Airport (19 nm W)
 
Loc | Ops | Rwys | IFR | FBO | Links
Com | Nav | Svcs | Stats | Notes
Area around 9R5 (Hunt Airport)
 
Road maps at: MapQuest Bing Google
 
Aerial photo
WARNING: Photo may not be current or correct
Aerial photo of 9R5 (Hunt Airport)
Do you have a better or more recent aerial photo of Hunt Airport that you would like to share? If so, please send us your photo.

 
Sectional chart

 
Airport distance calculator
Flying to Hunt Airport? Find the distance to fly.

From to 9R5

Sunrise and sunset
Times for 15-Jun-2021
 Local
(UTC-5)
 Zulu
(UTC)
Morning civil twilight06:0711:07
Sunrise06:3411:34
Sunset20:2601:26
Evening civil twilight20:5201:52

Current date and time
Zulu (UTC)  15-Jun-2021 12:01:43
Local (UTC-5)  15-Jun-2021 07:01:43
 
METAR
KTFP 
7nm E 
151115Z AUTO 33003KT 10SM CLR 24/23 A2994 RMK AO2 T02380225
KCRP 
11nm SW 
151051Z 33004KT 10SM FEW014 BKN250 23/22 A2994 RMK AO2 SLP138 T02280222 $
KNGP 
13nm S 
151156Z 30006KT 10SM FEW015 FEW046 BKN250 27/23 A2994 RMK AO2 SLP138 T02670233 10278 20256 53004 $
KT69 
14nm NW 
141255Z AUTO 26005KT 5SM BR OVC001 24/24 A2994 RMK A01
KRAS 
15nm E 
151115Z AUTO 00000KT 10SM CLR 26/23 A2995 RMK AO2 T02640229
KRBO 
19nm W 
151115Z AUTO 01004KT 10SM CLR 24/23 A2995 RMK AO2 T02370231
KRKP 
20nm NE 
151053Z AUTO 00000KT 9SM CLR 23/22 A2993 RMK AO2 SLP137 T02280217 $
TAF
KCRP 
11nm SW 
151123Z 1512/1612 VRB03KT P6SM SCT250 TEMPO 1512/1513 5SM BR SCT004 FM151400 VRB04KT P6SM FEW025 FM151800 10010KT P6SM FEW035 FM160100 12008KT P6SM FEW025 SCT250 FM160800 06004KT P6SM SCT005 TEMPO 1610/1612 5SM BR
KNGP 
13nm S 
1509/1607 VRB03KT 9999 BKN300 QNH2991INS FM151200 01006KT 9999 VCSH FEW006 FEW018 SCT050 BKN300 QNH2993INS FM151800 05008KT 9999 SCT025 BKN300 QNH2988INS FM152100 09010KT 9999 FEW030 SCT300 QNH2988INS FM152300 12012KT 9999 FEW030 SCT300 QNH2989INS FM160300 14008KT 9999 FEW015 FEW300 QNH2992INS AUTOMATED SENSOR METWATCH 1509 TIL 1511 T25/1512Z T33/1520Z AMD 0904 FN20044
NOTAMs
Click for the latest NOTAMs
NOTAMs are issued by the DoD/FAA and will open in a separate window not controlled by AirNav.

 

 
 

Would you like to see your business listed on this page?

 If your business provides an interesting product or service to pilots, flight crews, aircraft, or users of the Hunt Airport, you should consider listing it here.  To start the listing process, click on the button below
 
Add a business
 

Other Pages about Hunt Airport

Update a link
 
Copyright © AirNav, LLC. All rights reserved. Privacy Policy  Contact